createdAt,value
2017-02-15T00:00:39.777Z,0
2017-02-15T00:01:49.610Z,0
2017-02-15T00:03:00.154Z,0
2017-02-15T00:04:09.479Z,0
2017-02-15T00:05:19.214Z,0
2017-02-15T00:06:28.949Z,0
2017-02-15T00:07:38.369Z,0
2017-02-15T00:08:47.278Z,0
2017-02-15T00:09:56.637Z,0
2017-02-15T00:11:05.553Z,0
2017-02-15T00:12:14.892Z,0
2017-02-15T00:13:23.852Z,0
2017-02-15T00:14:34.408Z,0
2017-02-15T00:15:43.315Z,0
2017-02-15T00:16:52.649Z,0
2017-02-15T00:18:01.582Z,0
2017-02-15T00:19:11.377Z,0
2017-02-15T00:20:21.135Z,0
2017-02-15T00:21:30.468Z,0
2017-02-15T00:22:40.235Z,0
2017-02-15T00:23:49.968Z,0
2017-02-15T00:24:59.890Z,0
2017-02-15T00:26:09.632Z,0
2017-02-15T00:27:18.963Z,0
2017-02-15T00:28:28.289Z,0
2017-02-15T00:29:37.601Z,0
2017-02-15T00:30:46.683Z,0
2017-02-15T00:31:55.605Z,0
2017-02-15T00:33:05.749Z,0
2017-02-15T00:34:15.070Z,0
2017-02-15T00:35:24.803Z,0
2017-02-15T00:36:34.269Z,0
2017-02-15T00:37:44.005Z,0
2017-02-15T00:38:53.337Z,0
2017-02-15T00:40:03.072Z,0
2017-02-15T00:41:13.203Z,0
2017-02-15T00:42:23.156Z,0
2017-02-15T00:43:32.518Z,0
2017-02-15T00:44:42.242Z,0
2017-02-15T00:45:51.965Z,0
2017-02-15T00:47:01.302Z,0
2017-02-15T00:48:10.495Z,0
2017-02-15T00:49:19.823Z,0
2017-02-15T00:50:29.156Z,0
2017-02-15T00:51:38.465Z,0
2017-02-15T00:52:47.780Z,0
2017-02-15T00:53:57.102Z,0
2017-02-15T00:55:06.470Z,0
2017-02-15T00:56:15.789Z,0
2017-02-15T00:57:25.524Z,0
2017-02-15T00:58:34.835Z,0
2017-02-15T00:59:45.137Z,0
2017-02-15T01:00:54.871Z,0
2017-02-15T01:02:04.186Z,0
2017-02-15T01:03:13.548Z,0
2017-02-15T01:04:22.871Z,0
2017-02-15T01:05:32.420Z,0
2017-02-15T01:06:42.555Z,0
2017-02-15T01:07:51.883Z,0
2017-02-15T01:09:01.220Z,0
2017-02-15T01:10:10.156Z,0
2017-02-15T01:11:20.087Z,0
2017-02-15T01:12:30.243Z,0
2017-02-15T01:13:39.572Z,0
2017-02-15T01:14:50.123Z,0
2017-02-15T01:16:00.270Z,0
2017-02-15T01:17:09.636Z,0
2017-02-15T01:18:18.554Z,0
2017-02-15T01:19:27.872Z,0
2017-02-15T01:20:37.612Z,0
2017-02-15T01:21:47.342Z,0
2017-02-15T01:22:56.259Z,0
2017-02-15T01:24:06.026Z,0
2017-02-15T01:25:15.765Z,0
2017-02-15T01:26:25.508Z,0
2017-02-15T01:27:35.643Z,0
2017-02-15T01:28:45.523Z,0
2017-02-15T01:29:54.839Z,0
2017-02-15T01:31:04.579Z,0
2017-02-15T01:32:13.929Z,0
2017-02-15T01:33:23.654Z,0
2017-02-15T01:34:33.883Z,0
2017-02-15T01:35:43.215Z,0
2017-02-15T01:36:52.968Z,0
2017-02-15T01:38:02.298Z,0
2017-02-15T01:39:12.027Z,0
2017-02-15T01:40:20.934Z,0
2017-02-15T01:41:31.066Z,0
2017-02-15T01:42:40.394Z,0
2017-02-15T01:43:50.135Z,0
2017-02-15T01:44:59.452Z,0
2017-02-15T01:46:09.349Z,0
2017-02-15T01:47:18.679Z,0
2017-02-15T01:48:28.004Z,0
2017-02-15T01:49:37.339Z,0
2017-02-15T01:50:47.911Z,0
2017-02-15T01:51:57.382Z,0
2017-02-15T01:53:06.296Z,0
2017-02-15T01:54:16.035Z,0
2017-02-15T01:55:25.357Z,0
2017-02-15T01:56:34.703Z,0
2017-02-15T01:57:44.735Z,0
2017-02-15T01:58:54.473Z,0
2017-02-15T02:00:04.191Z,0
2017-02-15T02:01:13.920Z,0
2017-02-15T02:02:23.642Z,0
2017-02-15T02:03:32.624Z,0
2017-02-15T02:04:41.953Z,0
2017-02-15T02:05:51.686Z,0
2017-02-15T02:07:00.617Z,0
2017-02-15T02:08:10.340Z,0
2017-02-15T02:09:19.312Z,0
2017-02-15T02:10:29.049Z,0
2017-02-15T02:11:38.372Z,0
2017-02-15T02:12:47.715Z,0
2017-02-15T02:13:57.438Z,0
2017-02-15T02:15:07.015Z,0
2017-02-15T02:16:15.938Z,0
2017-02-15T02:17:25.267Z,0
2017-02-15T02:18:34.600Z,0
2017-02-15T02:19:43.924Z,0
2017-02-15T02:20:53.007Z,0
2017-02-15T02:22:02.341Z,0
2017-02-15T02:23:11.647Z,0
2017-02-15T02:24:20.973Z,0
2017-02-15T02:25:30.722Z,0
2017-02-15T02:26:40.135Z,0
2017-02-15T02:27:50.680Z,0
2017-02-15T02:28:59.605Z,0
2017-02-15T02:30:09.351Z,0
2017-02-15T02:31:18.276Z,0
2017-02-15T02:32:28.400Z,0
2017-02-15T02:33:37.728Z,0
2017-02-15T02:34:47.059Z,0
2017-02-15T02:35:56.381Z,0
2017-02-15T02:37:05.714Z,0
2017-02-15T02:38:15.201Z,0
2017-02-15T02:39:24.938Z,0
2017-02-15T02:40:33.856Z,0
2017-02-15T02:41:44.399Z,0
2017-02-15T02:42:53.711Z,0
2017-02-15T02:44:03.453Z,0
2017-02-15T02:45:12.369Z,0
2017-02-15T02:46:21.308Z,0
2017-02-15T02:47:31.450Z,0
2017-02-15T02:48:41.580Z,0
2017-02-15T02:49:51.871Z,0
2017-02-15T02:51:01.203Z,0
2017-02-15T02:52:11.744Z,0
2017-02-15T02:53:21.072Z,0
2017-02-15T02:54:30.405Z,0
2017-02-15T02:55:40.161Z,0
2017-02-15T02:56:50.298Z,0
2017-02-15T02:57:59.627Z,0
2017-02-15T02:59:09.359Z,0
2017-02-15T03:00:18.689Z,0
2017-02-15T03:01:28.877Z,0
2017-02-15T03:02:37.791Z,0
2017-02-15T03:03:47.522Z,0
2017-02-15T03:04:56.847Z,0
2017-02-15T03:06:05.771Z,0
2017-02-15T03:07:15.500Z,0
2017-02-15T03:08:25.234Z,0
2017-02-15T03:09:34.176Z,0
2017-02-15T03:10:43.907Z,0
2017-02-15T03:11:53.635Z,0
2017-02-15T03:13:04.249Z,0
2017-02-15T03:14:13.565Z,0
2017-02-15T03:15:22.493Z,0
2017-02-15T03:16:31.805Z,0
2017-02-15T03:17:42.353Z,0
2017-02-15T03:18:51.724Z,0
2017-02-15T03:20:01.469Z,0
2017-02-15T03:21:11.209Z,0
2017-02-15T03:22:20.142Z,0
2017-02-15T03:23:30.298Z,0
2017-02-15T03:24:40.299Z,0
2017-02-15T03:25:49.611Z,0
2017-02-15T03:26:59.343Z,0
2017-02-15T03:28:09.476Z,0
2017-02-15T03:29:18.397Z,0
2017-02-15T03:30:28.186Z,0
2017-02-15T03:31:37.514Z,0
2017-02-15T03:32:46.437Z,0
2017-02-15T03:33:55.776Z,0
2017-02-15T03:35:04.702Z,0
2017-02-15T03:36:14.627Z,0
2017-02-15T03:37:23.574Z,0
2017-02-15T03:38:32.900Z,0
2017-02-15T03:39:41.810Z,0
2017-02-15T03:40:51.118Z,0
2017-02-15T03:42:00.899Z,0
2017-02-15T03:43:10.222Z,0
2017-02-15T03:44:19.139Z,0
2017-02-15T03:45:28.856Z,0
2017-02-15T03:46:38.600Z,0
2017-02-15T03:47:48.172Z,0
2017-02-15T03:48:58.326Z,0
2017-02-15T03:50:07.652Z,0
2017-02-15T03:51:16.555Z,0
2017-02-15T03:52:26.278Z,0
2017-02-15T03:53:36.106Z,0
2017-02-15T03:54:45.842Z,0
2017-02-15T03:55:55.976Z,0
2017-02-15T03:57:05.312Z,0
2017-02-15T03:58:14.226Z,0
2017-02-15T03:59:23.606Z,0
2017-02-15T04:00:33.750Z,0
2017-02-15T04:01:43.066Z,0
2017-02-15T04:02:52.803Z,0
2017-02-15T04:04:01.722Z,0
2017-02-15T04:05:11.277Z,0
2017-02-15T04:06:21.011Z,0
2017-02-15T04:07:30.748Z,0
2017-02-15T04:08:40.890Z,0
2017-02-15T04:09:50.199Z,0
2017-02-15T04:11:00.324Z,0
2017-02-15T04:12:10.070Z,0
2017-02-15T04:13:20.200Z,0
2017-02-15T04:14:29.528Z,0
2017-02-15T04:15:38.455Z,0
2017-02-15T04:16:47.827Z,0
2017-02-15T04:17:57.545Z,0
2017-02-15T04:19:07.268Z,0
2017-02-15T04:20:16.595Z,0
2017-02-15T04:21:26.721Z,0
2017-02-15T04:22:36.110Z,0
2017-02-15T04:23:45.849Z,0
2017-02-15T04:24:55.162Z,0
2017-02-15T04:26:04.492Z,0
2017-02-15T04:27:14.213Z,0
2017-02-15T04:28:23.581Z,0
2017-02-15T04:29:32.486Z,0
2017-02-15T04:30:41.825Z,0
2017-02-15T04:31:51.565Z,0
2017-02-15T04:33:00.878Z,0
2017-02-15T04:34:10.870Z,0
2017-02-15T04:35:20.593Z,0
2017-02-15T04:36:29.503Z,0
2017-02-15T04:37:38.417Z,0
2017-02-15T04:38:47.738Z,0
2017-02-15T04:39:57.606Z,0
2017-02-15T04:41:06.946Z,0
2017-02-15T04:42:16.280Z,0
2017-02-15T04:43:25.603Z,0
2017-02-15T04:44:35.335Z,0
2017-02-15T04:45:45.915Z,0
2017-02-15T04:46:55.642Z,0
2017-02-15T04:48:05.790Z,0
2017-02-15T04:49:15.111Z,0
2017-02-15T04:50:24.848Z,0
2017-02-15T04:51:34.216Z,0
2017-02-15T04:52:43.551Z,0
2017-02-15T04:53:53.271Z,0
2017-02-15T04:55:03.012Z,0
2017-02-15T04:56:12.774Z,0
2017-02-15T04:57:22.703Z,0
2017-02-15T04:58:32.046Z,0
2017-02-15T04:59:42.182Z,0
2017-02-15T05:00:51.914Z,0
2017-02-15T05:02:02.073Z,0
2017-02-15T05:03:11.665Z,0
2017-02-15T05:04:21.402Z,0
2017-02-15T05:05:30.723Z,0
2017-02-15T05:06:39.625Z,0
2017-02-15T05:07:48.932Z,0
2017-02-15T05:08:58.526Z,0
2017-02-15T05:10:07.860Z,0
2017-02-15T05:11:16.778Z,0
2017-02-15T05:12:27.774Z,0
2017-02-15T05:13:37.116Z,0
2017-02-15T05:14:47.324Z,0
2017-02-15T05:15:56.246Z,0
2017-02-15T05:17:05.976Z,0
2017-02-15T05:18:15.314Z,0
2017-02-15T05:19:24.635Z,0
2017-02-15T05:20:34.541Z,0
2017-02-15T05:21:44.274Z,0
2017-02-15T05:22:53.996Z,0
2017-02-15T05:24:02.911Z,0
2017-02-15T05:25:12.225Z,0
2017-02-15T05:26:21.814Z,0
2017-02-15T05:27:31.144Z,0
2017-02-15T05:28:40.060Z,0
2017-02-15T05:29:49.370Z,0
2017-02-15T05:30:59.509Z,0
2017-02-15T05:32:10.235Z,0
2017-02-15T05:33:19.992Z,0
2017-02-15T05:34:29.335Z,0
2017-02-15T05:35:39.079Z,0
2017-02-15T05:36:48.420Z,0
2017-02-15T05:37:57.891Z,0
2017-02-15T05:39:06.820Z,0
2017-02-15T05:40:16.147Z,0
2017-02-15T05:41:25.467Z,0
2017-02-15T05:42:35.619Z,0
2017-02-15T05:43:44.583Z,0
2017-02-15T05:44:53.916Z,0
2017-02-15T05:46:02.822Z,0
2017-02-15T05:47:12.969Z,0
2017-02-15T05:48:22.710Z,0
2017-02-15T05:49:32.237Z,0
2017-02-15T05:50:42.362Z,0
2017-02-15T05:51:52.106Z,0
2017-02-15T05:53:01.021Z,0
2017-02-15T05:54:10.353Z,0
2017-02-15T05:55:20.218Z,0
2017-02-15T05:56:29.131Z,0
2017-02-15T05:57:38.505Z,0
2017-02-15T05:58:48.248Z,0
2017-02-15T05:59:57.968Z,0
2017-02-15T06:01:07.024Z,0
2017-02-15T06:02:16.757Z,0
2017-02-15T06:03:26.487Z,0
2017-02-15T06:04:36.217Z,0
2017-02-15T06:05:45.935Z,0
2017-02-15T06:06:55.414Z,4
2017-02-15T06:08:04.332Z,0
2017-02-15T06:09:13.666Z,0
2017-02-15T06:10:22.585Z,4
2017-02-15T06:11:31.909Z,0
2017-02-15T06:12:41.792Z,4
2017-02-15T06:13:51.508Z,4
2017-02-15T06:15:00.822Z,4
2017-02-15T06:16:10.557Z,8
2017-02-15T06:17:20.700Z,12
2017-02-15T06:18:29.920Z,12
2017-02-15T06:19:39.255Z,12
2017-02-15T06:20:48.973Z,12
2017-02-15T06:21:57.900Z,20
2017-02-15T06:23:07.639Z,20
2017-02-15T06:24:16.717Z,28
2017-02-15T06:25:26.039Z,32
2017-02-15T06:26:35.388Z,40
2017-02-15T06:27:44.310Z,48
2017-02-15T06:28:54.045Z,56
2017-02-15T06:30:03.529Z,68
2017-02-15T06:31:12.853Z,80
2017-02-15T06:32:21.767Z,96
2017-02-15T06:33:30.688Z,108
2017-02-15T06:34:40.414Z,128
2017-02-15T06:35:50.603Z,144
2017-02-15T06:36:59.961Z,164
2017-02-15T06:38:09.690Z,188
2017-02-15T06:39:19.001Z,208
2017-02-15T06:40:28.333Z,236
2017-02-15T06:41:38.052Z,264
2017-02-15T06:42:47.396Z,292
2017-02-15T06:43:56.712Z,324
2017-02-15T06:45:06.025Z,356
2017-02-15T06:46:15.359Z,392
2017-02-15T06:47:25.250Z,424
2017-02-15T06:48:34.575Z,460
2017-02-15T06:49:43.889Z,500
2017-02-15T06:50:53.210Z,536
2017-02-15T06:52:02.541Z,576
2017-02-15T06:53:11.513Z,616
2017-02-15T06:54:20.824Z,660
2017-02-15T06:55:30.141Z,700
2017-02-15T06:56:39.857Z,744
2017-02-15T06:57:48.793Z,784
2017-02-15T06:58:58.137Z,828
2017-02-15T07:00:08.742Z,872
2017-02-15T07:01:17.670Z,916
2017-02-15T07:02:27.004Z,960
2017-02-15T07:03:36.749Z,1004
2017-02-15T07:04:46.931Z,1048
2017-02-15T07:05:56.347Z,1096
2017-02-15T07:14:25.381Z,1420
2017-02-15T07:15:37.210Z,1468
2017-02-15T07:16:46.931Z,1512
2017-02-15T07:17:57.194Z,1556
2017-02-15T07:19:07.097Z,1600
2017-02-15T07:20:17.189Z,1644
2017-02-15T07:21:27.200Z,1684
2017-02-15T07:22:36.104Z,1724
2017-02-15T07:23:45.448Z,1764
2017-02-15T07:24:54.768Z,1804
2017-02-15T07:26:04.093Z,1844
2017-02-15T07:27:13.830Z,1884
2017-02-15T07:28:22.746Z,1928
2017-02-15T07:29:32.632Z,1964
2017-02-15T07:30:41.533Z,2004
2017-02-15T07:31:51.261Z,2040
2017-02-15T07:33:01.007Z,2080
2017-02-15T07:34:09.921Z,2116
2017-02-15T07:35:19.244Z,2152
2017-02-15T07:36:29.380Z,2188
2017-02-15T07:37:38.299Z,2220
2017-02-15T07:38:47.217Z,2256
2017-02-15T07:39:56.546Z,2288
2017-02-15T07:41:07.153Z,2324
2017-02-15T07:42:16.512Z,2352
2017-02-15T07:43:25.827Z,2388
2017-02-15T07:44:35.163Z,2420
2017-02-15T07:45:44.917Z,2448
2017-02-15T07:46:54.008Z,2480
2017-02-15T07:48:04.561Z,2504
2017-02-15T07:49:13.533Z,2532
2017-02-15T07:50:22.470Z,2560
2017-02-15T07:51:32.603Z,2592
2017-02-15T07:52:42.121Z,2616
2017-02-15T07:53:51.437Z,2648
2017-02-15T07:55:00.769Z,2676
2017-02-15T07:56:10.492Z,2700
2017-02-15T07:57:19.823Z,2728
2017-02-15T07:58:29.620Z,2756
2017-02-15T07:59:38.937Z,2780
2017-02-15T08:00:48.275Z,2804
2017-02-15T08:01:57.995Z,2832
2017-02-15T08:03:07.317Z,2852
2017-02-15T08:04:16.390Z,2880
2017-02-15T08:05:25.733Z,2900
2017-02-15T08:06:35.455Z,2924
2017-02-15T08:07:46.000Z,2952
2017-02-15T08:08:55.332Z,2976
2017-02-15T08:10:05.508Z,2992
2017-02-15T08:11:14.836Z,3012
2017-02-15T08:12:23.777Z,3036
2017-02-15T08:13:33.107Z,3056
2017-02-15T08:14:42.424Z,3084
2017-02-15T08:15:51.449Z,3100
2017-02-15T08:17:00.388Z,3116
2017-02-15T08:18:10.123Z,3140
2017-02-15T08:19:19.858Z,3152
2017-02-15T08:20:29.990Z,3172
2017-02-15T08:21:39.821Z,3184
2017-02-15T08:22:49.161Z,3208
2017-02-15T08:23:58.489Z,3228
2017-02-15T08:25:07.392Z,3244
2017-02-15T08:26:16.713Z,3260
2017-02-15T08:27:25.818Z,3276
2017-02-15T08:28:34.730Z,3288
2017-02-15T08:29:44.045Z,3300
2017-02-15T08:30:53.384Z,3316
2017-02-15T08:32:03.521Z,3336
2017-02-15T08:33:12.432Z,3352
2017-02-15T08:34:21.768Z,3376
2017-02-15T08:35:31.925Z,3388
2017-02-15T08:36:41.275Z,3404
2017-02-15T08:37:51.015Z,3416
2017-02-15T08:39:00.081Z,3428
2017-02-15T08:40:09.435Z,3440
2017-02-15T08:41:18.769Z,3456
2017-02-15T08:42:28.506Z,3476
2017-02-15T08:43:37.419Z,3492
2017-02-15T08:44:46.943Z,3504
2017-02-15T08:45:56.692Z,3524
2017-02-15T08:47:06.450Z,3544
2017-02-15T08:48:16.603Z,3564
2017-02-15T08:49:26.732Z,3568
2017-02-15T08:50:36.568Z,3576
2017-02-15T08:51:47.135Z,3584
2017-02-15T08:52:56.857Z,3600
2017-02-15T08:54:06.173Z,3612
2017-02-15T08:55:15.499Z,3624
2017-02-15T08:56:24.892Z,3640
2017-02-15T08:57:33.819Z,3652
2017-02-15T08:58:42.739Z,3660
2017-02-15T08:59:52.080Z,3672
2017-02-15T09:01:01.816Z,3688
2017-02-15T09:02:10.890Z,3696
2017-02-15T09:03:20.615Z,3708
2017-02-15T09:04:30.753Z,3716
2017-02-15T09:05:39.669Z,3728
2017-02-15T09:06:48.602Z,3740
2017-02-15T09:07:57.569Z,3748
2017-02-15T09:09:06.929Z,3756
2017-02-15T09:10:16.653Z,3768
2017-02-15T09:11:25.601Z,3776
2017-02-15T09:12:35.334Z,3796
2017-02-15T09:13:44.855Z,3808
2017-02-15T09:14:53.776Z,3816
2017-02-15T09:16:02.690Z,3836
2017-02-15T09:17:12.006Z,3840
2017-02-15T09:18:20.923Z,3852
2017-02-15T09:19:31.109Z,3868
2017-02-15T09:20:40.441Z,3876
2017-02-15T09:21:50.187Z,3892
2017-02-15T09:22:59.131Z,3908
2017-02-15T09:24:08.872Z,3920
2017-02-15T09:25:18.651Z,3944
2017-02-15T09:26:27.582Z,3952
2017-02-15T09:27:37.332Z,3972
2017-02-15T09:28:46.663Z,3984
2017-02-15T09:29:55.570Z,4008
2017-02-15T09:31:05.036Z,4028
2017-02-15T09:32:14.352Z,4044
2017-02-15T09:33:23.282Z,4072
2017-02-15T09:34:32.240Z,4088
2017-02-15T09:35:41.567Z,4108
2017-02-15T09:36:51.174Z,4124
2017-02-15T09:38:01.315Z,4140
2017-02-15T09:39:11.060Z,4160
2017-02-15T09:40:20.422Z,4180
2017-02-15T09:41:29.774Z,4196
2017-02-15T09:42:38.758Z,4208
2017-02-15T09:43:48.507Z,4224
2017-02-15T09:44:58.231Z,4240
2017-02-15T09:46:07.977Z,4252
2017-02-15T09:47:17.316Z,4252
2017-02-15T09:48:27.705Z,4260
2017-02-15T09:49:37.438Z,4260
2017-02-15T09:50:46.756Z,4256
2017-02-15T09:51:55.687Z,4284
2017-02-15T09:53:04.616Z,4284
2017-02-15T09:54:13.684Z,4296
2017-02-15T09:55:23.451Z,4308
2017-02-15T09:56:33.191Z,4308
2017-02-15T09:57:42.921Z,4308
2017-02-15T09:58:51.868Z,4312
2017-02-15T10:00:00.941Z,4320
2017-02-15T10:01:09.862Z,4320
2017-02-15T10:02:19.186Z,4332
2017-02-15T10:03:28.511Z,4348
2017-02-15T10:04:38.679Z,4352
2017-02-15T10:05:48.203Z,4380
2017-02-15T10:06:57.950Z,4384
2017-02-15T10:08:07.678Z,4396
2017-02-15T10:09:16.603Z,4412
2017-02-15T10:10:26.343Z,4424
2017-02-15T10:11:36.125Z,4444
2017-02-15T10:12:45.857Z,4452
2017-02-15T10:13:55.173Z,4468
2017-02-15T10:15:04.103Z,4484
2017-02-15T10:16:13.033Z,4504
2017-02-15T10:17:22.423Z,4512
2017-02-15T10:18:32.568Z,4528
2017-02-15T10:19:42.300Z,4544
2017-02-15T10:20:51.634Z,4548
2017-02-15T10:22:01.389Z,4572
2017-02-15T10:23:10.473Z,4596
2017-02-15T10:24:19.810Z,4616
2017-02-15T10:25:29.152Z,4632
2017-02-15T10:26:38.065Z,4640
2017-02-15T10:27:48.227Z,4648
2017-02-15T10:28:58.019Z,4664
2017-02-15T10:30:07.361Z,4680
2017-02-15T10:31:17.091Z,4692
2017-02-15T10:32:27.653Z,4708
2017-02-15T10:33:36.980Z,4724
2017-02-15T10:34:47.342Z,4740
2017-02-15T10:35:57.888Z,4764
2017-02-15T10:37:07.629Z,4784
2017-02-15T10:38:16.963Z,4800
2017-02-15T10:39:26.701Z,4816
2017-02-15T10:40:37.264Z,4840
2017-02-15T10:41:46.592Z,4848
2017-02-15T10:42:56.321Z,4856
2017-02-15T10:44:05.268Z,4880
2017-02-15T10:45:14.198Z,4912
2017-02-15T10:46:24.544Z,4932
2017-02-15T10:47:33.466Z,4948
2017-02-15T10:48:42.374Z,4948
2017-02-15T10:49:51.759Z,4948
2017-02-15T10:51:00.683Z,4972
2017-02-15T10:52:10.281Z,5000
2017-02-15T10:53:19.217Z,5008
2017-02-15T10:54:28.946Z,5048
2017-02-15T10:55:38.686Z,5076
2017-02-15T10:56:48.426Z,5096
2017-02-15T10:57:57.581Z,5136
2017-02-15T10:59:06.917Z,5160
2017-02-15T11:00:16.667Z,5196
2017-02-15T11:01:25.583Z,5204
2017-02-15T11:02:35.342Z,5212
2017-02-15T11:03:44.363Z,5224
2017-02-15T11:04:53.302Z,5260
2017-02-15T11:06:02.644Z,5232
2017-02-15T11:07:12.372Z,5296
2017-02-15T11:08:22.105Z,5344
2017-02-15T11:09:32.307Z,5360
2017-02-15T11:10:41.631Z,5368
2017-02-15T11:11:51.368Z,5364
2017-02-15T11:13:01.122Z,5368
2017-02-15T11:14:10.072Z,5376
2017-02-15T11:15:19.256Z,5392
2017-02-15T11:16:28.590Z,5408
2017-02-15T11:17:38.345Z,5416
2017-02-15T11:18:47.686Z,5416
2017-02-15T11:19:57.035Z,5436
2017-02-15T11:21:06.929Z,5432
2017-02-15T11:22:15.868Z,5440
2017-02-15T11:23:25.607Z,5456
2017-02-15T11:24:35.783Z,5484
2017-02-15T11:25:45.531Z,5508
2017-02-15T11:26:54.598Z,5492
2017-02-15T11:28:05.166Z,5476
2017-02-15T11:29:14.118Z,5488
2017-02-15T11:30:23.441Z,5512
2017-02-15T11:31:33.188Z,5544
2017-02-15T11:32:43.114Z,5560
2017-02-15T11:33:52.454Z,5572
2017-02-15T11:35:01.781Z,5576
2017-02-15T11:36:11.921Z,5576
2017-02-15T11:37:21.260Z,5572
2017-02-15T11:38:30.603Z,5592
2017-02-15T11:39:40.344Z,5604
2017-02-15T11:40:50.078Z,5648
2017-02-15T11:41:59.408Z,5680
2017-02-15T11:43:09.557Z,5720
2017-02-15T11:44:19.445Z,5744
2017-02-15T11:45:28.774Z,5756
2017-02-15T11:46:38.139Z,5764
2017-02-15T11:47:47.086Z,5764
2017-02-15T11:48:56.812Z,5784
2017-02-15T11:50:06.563Z,5792
2017-02-15T11:51:16.300Z,5824
2017-02-15T11:52:26.025Z,5840
2017-02-15T11:53:35.367Z,5836
2017-02-15T11:54:44.321Z,5840
2017-02-15T11:55:54.256Z,5864
2017-02-15T11:57:03.190Z,5872
2017-02-15T11:58:12.139Z,5876
2017-02-15T11:59:21.883Z,5880
2017-02-15T12:00:30.863Z,5892
2017-02-15T12:01:40.503Z,5908
2017-02-15T12:02:50.768Z,5912
2017-02-15T12:04:00.606Z,5920
2017-02-15T12:05:09.556Z,5948
2017-02-15T12:06:19.303Z,5976
2017-02-15T12:07:28.372Z,5984
2017-02-15T12:08:37.710Z,5972
2017-02-15T12:09:47.053Z,5952
2017-02-15T12:10:56.798Z,5952
2017-02-15T12:12:06.349Z,5960
2017-02-15T12:13:15.525Z,5976
2017-02-15T12:14:25.268Z,6016
2017-02-15T12:15:34.590Z,6060
2017-02-15T12:16:45.150Z,6096
2017-02-15T12:17:54.468Z,6128
2017-02-15T12:19:04.408Z,6144
2017-02-15T12:20:13.743Z,6196
2017-02-15T12:21:22.663Z,6244
2017-02-15T12:22:32.405Z,6276
2017-02-15T12:23:42.537Z,6288
2017-02-15T12:24:52.732Z,6284
2017-02-15T12:26:02.479Z,6356
2017-02-15T12:27:11.828Z,6448
2017-02-15T12:28:21.168Z,6528
2017-02-15T12:29:30.094Z,6540
2017-02-15T12:30:39.293Z,6536
2017-02-15T12:31:49.029Z,6544
2017-02-15T12:32:58.357Z,6612
2017-02-15T12:34:07.700Z,7208
2017-02-15T12:35:16.626Z,7192
2017-02-15T12:36:27.358Z,6788
2017-02-15T12:37:37.521Z,6748
2017-02-15T12:38:47.267Z,7068
2017-02-15T12:39:56.189Z,7580
2017-02-15T12:41:05.925Z,7468
2017-02-15T12:42:15.055Z,7612
2017-02-15T12:43:24.817Z,8324
2017-02-15T12:44:33.761Z,10556
2017-02-15T12:45:43.101Z,12084
2017-02-15T12:46:52.846Z,12708
2017-02-15T12:48:02.645Z,13572
2017-02-15T12:49:11.978Z,11360
2017-02-15T12:50:21.304Z,7976
2017-02-15T12:51:31.063Z,10172
2017-02-15T12:52:40.801Z,22272
2017-02-15T12:53:50.188Z,20416
2017-02-15T12:54:59.944Z,17344
2017-02-15T12:56:09.280Z,17728
2017-02-15T12:57:18.602Z,12900
2017-02-15T12:58:28.358Z,8700
2017-02-15T12:59:37.835Z,9848
2017-02-15T13:00:47.568Z,7428
2017-02-15T13:01:57.300Z,7472
2017-02-15T13:03:06.243Z,11656
2017-02-15T13:04:16.398Z,21472
2017-02-15T13:05:25.786Z,21536
2017-02-15T13:06:34.715Z,23072
2017-02-15T13:07:44.475Z,22784
2017-02-15T13:08:53.800Z,16832
2017-02-15T13:10:02.723Z,11600
2017-02-15T13:11:13.028Z,15840
2017-02-15T13:12:22.767Z,20352
2017-02-15T13:13:32.100Z,19648
2017-02-15T13:14:42.263Z,18400
2017-02-15T13:15:51.999Z,16032
2017-02-15T13:17:01.431Z,16032
2017-02-15T13:18:10.790Z,10640
2017-02-15T13:19:20.142Z,12612
2017-02-15T13:20:29.485Z,12100
2017-02-15T13:21:38.822Z,9968
2017-02-15T13:22:48.315Z,16096
2017-02-15T13:23:58.071Z,19616
2017-02-15T13:25:07.422Z,13520
2017-02-15T13:26:17.177Z,19424
2017-02-15T13:27:26.927Z,12792
2017-02-15T13:28:36.842Z,14068
2017-02-15T13:29:45.789Z,26080
2017-02-15T13:30:55.549Z,27648
2017-02-15T13:32:04.910Z,30272
2017-02-15T13:33:14.256Z,31552
2017-02-15T13:34:24.138Z,28448
2017-02-15T13:35:34.297Z,12348
2017-02-15T13:36:44.032Z,7968
2017-02-15T13:37:53.785Z,7984
2017-02-15T13:39:03.133Z,8212
2017-02-15T13:40:12.939Z,8792
2017-02-15T13:41:22.288Z,11476
2017-02-15T13:42:31.224Z,26528
2017-02-15T13:43:40.578Z,33568
2017-02-15T13:44:50.317Z,28192
2017-02-15T13:45:59.805Z,21408
2017-02-15T13:47:08.729Z,15904
2017-02-15T13:48:17.681Z,19232
2017-02-15T13:49:27.426Z,23488
2017-02-15T13:50:37.629Z,11632
2017-02-15T13:51:47.448Z,9180
2017-02-15T13:52:57.194Z,12048
2017-02-15T13:54:06.550Z,9200
2017-02-15T13:55:15.472Z,18112
2017-02-15T13:56:25.630Z,23424
2017-02-15T13:57:35.086Z,21472
2017-02-15T13:58:44.427Z,18400
2017-02-15T13:59:54.612Z,16704
2017-02-15T14:01:04.366Z,20160
2017-02-15T14:02:13.711Z,19520
2017-02-15T14:03:23.611Z,16160
2017-02-15T14:04:33.772Z,18208
2017-02-15T14:05:43.965Z,15968
2017-02-15T14:06:53.338Z,12608
2017-02-15T14:08:02.674Z,11296
2017-02-15T14:09:12.359Z,10536
2017-02-15T14:10:22.114Z,8680
2017-02-15T14:11:31.855Z,8996
2017-02-15T14:12:42.014Z,10576
2017-02-15T14:13:51.359Z,12624
2017-02-15T14:15:00.901Z,13548
2017-02-15T14:16:10.237Z,13176
2017-02-15T14:17:19.171Z,14820
2017-02-15T14:18:28.500Z,21536
2017-02-15T14:19:37.832Z,24608
2017-02-15T14:20:46.960Z,21120
2017-02-15T14:21:56.699Z,17600
2017-02-15T14:23:06.063Z,11480
2017-02-15T14:24:15.415Z,10040
2017-02-15T14:25:24.336Z,19360
2017-02-15T14:26:34.236Z,25728
2017-02-15T14:27:43.204Z,22112
2017-02-15T14:28:52.551Z,17376
2017-02-15T14:30:01.897Z,18752
2017-02-15T14:31:11.252Z,13800
2017-02-15T14:32:21.171Z,10556
2017-02-15T14:33:30.938Z,14496
2017-02-15T14:34:41.093Z,20192
2017-02-15T14:35:50.435Z,18976
2017-02-15T14:36:59.789Z,21728
2017-02-15T14:38:09.193Z,25664
2017-02-15T14:39:18.124Z,22592
2017-02-15T14:40:27.537Z,23328
2017-02-15T14:41:37.305Z,26048
2017-02-15T14:42:46.240Z,27456
2017-02-15T14:43:55.694Z,29888
2017-02-15T14:45:05.441Z,30656
2017-02-15T14:46:15.204Z,29376
2017-02-15T14:47:24.961Z,29024
2017-02-15T14:48:34.741Z,28608
2017-02-15T14:49:44.491Z,28736
2017-02-15T14:50:55.083Z,30880
2017-02-15T14:52:04.834Z,30400
2017-02-15T14:53:14.579Z,26112
2017-02-15T14:54:24.330Z,25184
2017-02-15T14:55:34.477Z,26112
2017-02-15T14:56:45.073Z,24448
2017-02-15T14:57:54.425Z,24416
2017-02-15T14:59:04.178Z,23328
2017-02-15T15:00:13.920Z,18816
2017-02-15T15:01:23.663Z,17536
2017-02-15T15:02:33.004Z,15456
2017-02-15T15:03:43.167Z,15712
2017-02-15T15:04:52.522Z,13112
2017-02-15T15:06:01.890Z,13012
2017-02-15T15:07:10.825Z,16032
2017-02-15T15:08:21.793Z,14176
2017-02-15T15:09:31.698Z,19840
2017-02-15T15:10:41.054Z,15968
2017-02-15T15:11:50.390Z,14368
2017-02-15T15:13:00.130Z,9648
2017-02-15T15:14:09.476Z,11156
2017-02-15T15:15:18.857Z,10576
2017-02-15T15:16:27.798Z,9788
2017-02-15T15:17:37.152Z,9372
2017-02-15T15:18:46.100Z,11248
2017-02-15T15:19:55.049Z,10780
2017-02-15T15:21:04.801Z,9712
2017-02-15T15:22:14.543Z,17760
2017-02-15T15:23:24.315Z,13696
2017-02-15T15:24:34.066Z,10164
2017-02-15T15:25:43.417Z,12804
2017-02-15T15:26:52.763Z,13344
2017-02-15T15:28:01.705Z,13984
2017-02-15T15:29:11.035Z,15872
2017-02-15T15:30:20.378Z,11652
2017-02-15T15:31:30.129Z,9152
2017-02-15T15:32:39.460Z,6452
2017-02-15T15:33:49.626Z,7508
2017-02-15T15:34:58.986Z,8120
2017-02-15T15:36:08.328Z,6720
2017-02-15T15:37:17.666Z,6036
2017-02-15T15:38:26.615Z,4700
2017-02-15T15:39:35.974Z,6304
2017-02-15T15:40:46.516Z,10208
2017-02-15T15:41:55.447Z,8788
2017-02-15T15:43:04.773Z,7284
2017-02-15T15:44:14.540Z,4928
2017-02-15T15:45:23.904Z,4100
2017-02-15T15:46:33.693Z,4000
2017-02-15T15:47:43.053Z,3904
2017-02-15T15:48:51.981Z,3808
2017-02-15T15:50:02.131Z,3708
2017-02-15T15:51:11.890Z,3612
2017-02-15T15:52:21.833Z,3512
2017-02-15T15:53:30.750Z,3420
2017-02-15T15:54:40.107Z,3312
2017-02-15T15:55:50.283Z,3208
2017-02-15T15:56:59.237Z,3124
2017-02-15T15:58:08.660Z,3132
2017-02-15T15:59:18.001Z,3440
2017-02-15T16:00:27.336Z,3484
2017-02-15T16:01:36.685Z,3060
2017-02-15T16:02:46.431Z,2936
2017-02-15T16:03:55.923Z,2592
2017-02-15T16:05:05.663Z,2380
2017-02-15T16:06:15.816Z,2284
2017-02-15T16:07:26.369Z,2180